Weather at Teaching Hospital Na Bulovce Heliport

Public forecast

Using degrees Celsius for public forecast. Weather courtesy of forecast.io.

Closest aviation weather report (METAR) to Teaching Hospital Na Bulovce Heliport

Closest report is Kbely Air Base, 3.1 nm (5.8 km) E. Retrieved 2020/10/27 03:30 UTC (0 seconds ago):

LKKB 270330Z 22007KT 9999 -RA FEW045 OVC060 08/07 Q1009

Closest aviation forecast (TAF) to Teaching Hospital Na Bulovce Heliport

Closest forecast is Kbely Air Base, 3.1 nm (5.8 km) E. Retrieved 2020-10-27 00:00 UTC (3 hours ago):

TAF LKKB 262300Z 2700/2800 24008KT 9999 SCT020 OVC030 TEMPO 2700/2710 8000 RA SCT010 OVC015 PROB30 TEMPO 2700/2707 4000 RA BR BKN006 BECMG 2712/2714 SCT030 BECMG 2716/2718 20006KT